Time;durP1;ratioP1;P1;durP2;ratioP2;P2;SDS_P1;SDS_P2;PMS_P1;PMS_P2;Temp;Humidity;BMP_temperature;BMP_pressure;BME280_temperature;BME280_humidity;BME280_pressure;Samples;Min_cycle;Max_cycle;Signal;HPM_P1;HPM_P2
2021/06/23 00:01:34;;;;;;;8.98;3.47;;;;;;;;;;5055314;28;20116;-61
2021/06/23 00:04:00;;;;;;;12.45;3.70;;;;;;;;;;5058744;28;20044;-61
2021/06/23 00:06:30;;;;;;;12.40;3.55;;;;;;;;;;5040198;28;20123;-62
2021/06/23 00:08:56;;;;;;;12.80;3.72;;;;;;;;;;5056485;28;20051;-62
2021/06/23 00:11:24;;;;;;;7.43;3.78;;;;;;;;;;5070542;28;20088;-62
2021/06/23 00:13:52;;;;;;;6.53;3.28;;;;;;;;;;5053411;28;20036;-61
2021/06/23 00:16:18;;;;;;;15.35;3.53;;;;;;;;;;5053130;28;20132;-62
2021/06/23 00:18:43;;;;;;;16.65;4.07;;;;;;;;;;5054777;28;20036;-62
2021/06/23 00:21:16;;;;;;;6.00;3.10;;;;;;;;;;5055955;28;20032;-63
2021/06/23 00:23:44;;;;;;;8.85;3.35;;;;;;;;;;5072272;28;20047;-62
2021/06/23 00:26:10;;;;;;;10.45;3.28;;;;;;;;;;5021222;28;20076;-62
2021/06/23 00:28:40;;;;;;;8.80;3.90;;;;;;;;;;5056029;28;20028;-63
2021/06/23 00:31:05;;;;;;;10.05;3.55;;;;;;;;;;5056261;28;20047;-62
2021/06/23 00:33:33;;;;;;;8.68;3.53;;;;;;;;;;5043504;28;20115;-63
2021/06/23 00:36:01;;;;;;;11.32;3.67;;;;;;;;;;5054833;28;20028;-63
2021/06/23 00:38:29;;;;;;;9.10;3.05;;;;;;;;;;5056800;28;20032;-63
2021/06/23 00:40:56;;;;;;;9.07;3.85;;;;;;;;;;5058952;28;22065;-62
2021/06/23 00:43:23;;;;;;;12.35;3.45;;;;;;;;;;5039612;28;20058;-63
2021/06/23 00:45:51;;;;;;;6.82;3.75;;;;;;;;;;5055383;28;20130;-62
2021/06/23 00:48:20;;;;;;;13.02;4.00;;;;;;;;;;5052693;28;20032;-62
2021/06/23 00:50:45;;;;;;;9.30;3.60;;;;;;;;;;5053795;28;20028;-63
2021/06/23 00:53:14;;;;;;;7.30;3.20;;;;;;;;;;5056505;28;20023;-62
2021/06/23 00:55:42;;;;;;;8.52;4.07;;;;;;;;;;5055384;28;20042;-62
2021/06/23 00:58:11;;;;;;;12.52;4.20;;;;;;;;;;5072324;28;20043;-64
2021/06/23 01:00:44;;;;;;;8.05;3.63;;;;;;;;;;5058437;28;20043;-62
2021/06/23 01:03:12;;;;;;;9.55;4.32;;;;;;;;;;5060316;28;20041;-63
2021/06/23 01:05:40;;;;;;;10.30;4.20;;;;;;;;;;5057024;28;20855;-63
2021/06/23 01:08:07;;;;;;;12.15;3.78;;;;;;;;;;5059031;28;20032;-63
2021/06/23 01:10:37;;;;;;;11.02;4.10;;;;;;;;;;5058283;28;20024;-62
2021/06/23 01:13:15;;;;;;;4.10;3.50;;;;;;;;;;5059202;28;20034;-63
2021/06/23 01:15:43;;;;;;;;;;;;;;;;;;5072896;28;20104;-63
2021/06/23 01:18:11;;;;;;;11.13;3.65;;;;;;;;;;5059486;28;19968;-63
2021/06/23 01:20:43;;;;;;;9.50;3.75;;;;;;;;;;5056186;28;22066;-63
2021/06/23 01:23:15;;;;;;;7.75;4.60;;;;;;;;;;5060364;28;20048;-63
2021/06/23 01:25:43;;;;;;;7.40;4.80;;;;;;;;;;5058028;28;20076;-62
2021/06/23 01:28:13;;;;;;;9.98;4.45;;;;;;;;;;5059703;28;20028;-62
2021/06/23 01:30:39;;;;;;;10.57;4.75;;;;;;;;;;5057999;28;20044;-62
2021/06/23 01:33:05;;;;;;;14.10;4.82;;;;;;;;;;5057666;28;20044;-62
2021/06/23 01:35:33;;;;;;;10.77;4.00;;;;;;;;;;5057216;28;20060;-62
2021/06/23 01:38:03;;;;;;;12.80;5.10;;;;;;;;;;5057850;28;20164;-62
2021/06/23 01:40:29;;;;;;;10.77;4.82;;;;;;;;;;5058355;28;20167;-63
2021/06/23 01:42:57;;;;;;;8.10;5.32;;;;;;;;;;5074131;28;20020;-61
2021/06/23 01:45:23;;;;;;;12.50;4.32;;;;;;;;;;5074635;27;20044;-62
2021/06/23 01:47:49;;;;;;;15.90;5.25;;;;;;;;;;5058061;28;20028;-62
2021/06/23 01:50:20;;;;;;;10.43;4.65;;;;;;;;;;5059028;28;20028;-62
2021/06/23 01:52:46;;;;;;;7.20;4.32;;;;;;;;;;5059599;28;20028;-62
2021/06/23 01:55:27;;;;;;;9.02;4.57;;;;;;;;;;5037239;28;20043;-62
2021/06/23 01:58:09;;;;;;;12.15;4.43;;;;;;;;;;5075338;28;20143;-62
2021/06/23 02:00:41;;;;;;;7.10;3.28;;;;;;;;;;5057006;28;20043;-62
2021/06/23 02:03:19;;;;;;;12.18;4.78;;;;;;;;;;5060183;28;21091;-62
2021/06/23 02:05:54;;;;;;;13.55;3.50;;;;;;;;;;5073044;28;20028;-62
2021/06/23 02:08:38;;;;;;;7.30;4.15;;;;;;;;;;5059993;28;20058;-63
2021/06/23 02:11:14;;;;;;;7.80;4.13;;;;;;;;;;5057092;28;20054;-63
2021/06/23 02:13:52;;;;;;;11.85;3.97;;;;;;;;;;5064950;28;20028;-62
2021/06/23 02:16:23;;;;;;;13.10;3.92;;;;;;;;;;5070619;28;21457;-62
2021/06/23 02:18:50;;;;;;;5.68;3.83;;;;;;;;;;5059256;28;20145;-63
2021/06/23 02:21:18;;;;;;;15.00;4.10;;;;;;;;;;5057671;28;20116;-62
2021/06/23 02:23:44;;;;;;;12.90;4.22;;;;;;;;;;5056999;28;20999;-62
2021/06/23 02:26:14;;;;;;;17.00;4.15;;;;;;;;;;5058586;28;20943;-63
2021/06/23 02:28:42;;;;;;;14.20;4.00;;;;;;;;;;5063660;28;20032;-63
2021/06/23 02:31:11;;;;;;;11.40;4.30;;;;;;;;;;5056212;28;20120;-63
2021/06/23 02:33:41;;;;;;;15.63;4.00;;;;;;;;;;5060221;28;20027;-62
2021/06/23 02:36:09;;;;;;;8.38;3.50;;;;;;;;;;5056483;28;20468;-63
2021/06/23 02:38:37;;;;;;;7.85;3.95;;;;;;;;;;5057061;28;20021;-61
2021/06/23 02:41:03;;;;;;;14.02;3.70;;;;;;;;;;5072166;28;20027;-63
2021/06/23 02:43:29;;;;;;;10.52;3.40;;;;;;;;;;5055508;28;20537;-62
2021/06/23 02:46:34;;;;;;;11.93;4.05;;;;;;;;;;5058635;28;20024;-63
2021/06/23 02:49:00;;;;;;;9.10;3.60;;;;;;;;;;5058214;28;20024;-63
2021/06/23 02:51:30;;;;;;;12.90;3.70;;;;;;;;;;5057926;28;20063;-63
2021/06/23 02:53:59;;;;;;;10.68;3.42;;;;;;;;;;5075451;28;20035;-63
2021/06/23 02:56:26;;;;;;;15.50;3.45;;;;;;;;;;5056761;28;20050;-63
2021/06/23 02:58:51;;;;;;;5.70;2.75;;;;;;;;;;5056711;28;20074;-62
2021/06/23 03:01:17;;;;;;;12.27;3.72;;;;;;;;;;5055934;28;20052;-63
2021/06/23 03:03:46;;;;;;;10.82;3.20;;;;;;;;;;5059391;28;20091;-62
2021/06/23 03:06:14;;;;;;;12.25;3.13;;;;;;;;;;5057632;28;20067;-63
2021/06/23 03:08:42;;;;;;;10.43;3.72;;;;;;;;;;5057591;28;20187;-64
2021/06/23 03:11:09;;;;;;;7.32;3.70;;;;;;;;;;5057111;28;20024;-63
2021/06/23 03:13:35;;;;;;;9.20;3.42;;;;;;;;;;5057125;28;20036;-62
2021/06/23 03:16:08;;;;;;;8.27;3.30;;;;;;;;;;5053509;28;20055;-62
2021/06/23 03:18:36;;;;;;;6.38;3.47;;;;;;;;;;5057508;28;20024;-62
2021/06/23 03:21:08;;;;;;;14.50;3.25;;;;;;;;;;5054661;28;20024;-62
2021/06/23 03:23:33;;;;;;;14.35;3.08;;;;;;;;;;5057232;28;20177;-62
2021/06/23 03:26:04;;;;;;;7.57;2.92;;;;;;;;;;5058822;28;20032;-63
2021/06/23 03:28:32;;;;;;;10.05;2.92;;;;;;;;;;5057012;28;20601;-63
2021/06/23 03:30:57;;;;;;;11.70;3.58;;;;;;;;;;5041260;28;20039;-63
2021/06/23 03:33:23;;;;;;;9.63;3.60;;;;;;;;;;5072401;27;20055;-63
2021/06/23 03:35:50;;;;;;;9.65;3.40;;;;;;;;;;5055733;28;20123;-62
2021/06/23 03:38:16;;;;;;;10.73;3.20;;;;;;;;;;5055596;28;20123;-63
2021/06/23 03:40:44;;;;;;;10.57;3.75;;;;;;;;;;5053929;28;20070;-63
2021/06/23 03:43:14;;;;;;;7.15;3.63;;;;;;;;;;5056877;28;20066;-63
2021/06/23 03:45:42;;;;;;;9.13;3.17;;;;;;;;;;5055197;28;20910;-63
2021/06/23 03:48:08;;;;;;;14.57;3.40;;;;;;;;;;5057147;28;20033;-63
2021/06/23 03:50:33;;;;;;;3.85;3.05;;;;;;;;;;5055238;28;20032;-63
2021/06/23 03:52:59;;;;;;;6.38;3.40;;;;;;;;;;5042077;28;20056;-63
2021/06/23 03:55:28;;;;;;;11.50;3.80;;;;;;;;;;5056838;28;20037;-64
2021/06/23 03:57:54;;;;;;;15.52;3.42;;;;;;;;;;5057683;28;20020;-63
2021/06/23 04:00:20;;;;;;;4.22;3.05;;;;;;;;;;5056620;28;20120;-63
2021/06/23 04:02:50;;;;;;;6.38;3.83;;;;;;;;;;5056585;28;20548;-62
2021/06/23 04:05:16;;;;;;;6.13;3.30;;;;;;;;;;5057037;28;20047;-63
2021/06/23 04:07:43;;;;;;;8.80;3.65;;;;;;;;;;5072957;28;20060;-63
2021/06/23 04:10:12;;;;;;;8.15;3.70;;;;;;;;;;5055003;28;20574;-63
2021/06/23 04:12:38;;;;;;;7.10;3.67;;;;;;;;;;5063934;28;20037;-63
2021/06/23 04:15:10;;;;;;;7.30;4.10;;;;;;;;;;5036269;28;20077;-63
2021/06/23 04:17:38;;;;;;;7.85;3.28;;;;;;;;;;5057545;28;20020;-63
2021/06/23 04:20:05;;;;;;;5.82;3.08;;;;;;;;;;5053704;28;20037;-61
2021/06/23 04:22:36;;;;;;;11.70;3.70;;;;;;;;;;5069258;28;20384;-61
2021/06/23 04:25:04;;;;;;;9.85;3.55;;;;;;;;;;5054664;28;20047;-62
2021/06/23 04:27:29;;;;;;;7.03;3.88;;;;;;;;;;5060410;28;20209;-62
2021/06/23 04:29:57;;;;;;;10.35;4.53;;;;;;;;;;5053600;28;20032;-63
2021/06/23 04:32:25;;;;;;;20.35;6.35;;;;;;;;;;5022850;28;20055;-62
2021/06/23 04:34:50;;;;;;;17.92;4.65;;;;;;;;;;5051529;28;20028;-63
2021/06/23 04:37:18;;;;;;;13.55;4.75;;;;;;;;;;5054068;28;20028;-63
2021/06/23 04:39:46;;;;;;;18.55;6.07;;;;;;;;;;5054936;28;20036;-63
2021/06/23 04:42:13;;;;;;;12.48;4.90;;;;;;;;;;5043912;28;20036;-63
2021/06/23 04:44:41;;;;;;;10.98;4.90;;;;;;;;;;5054740;28;20961;-63
2021/06/23 04:47:09;;;;;;;17.33;5.38;;;;;;;;;;5055565;28;20037;-62
2021/06/23 04:49:42;;;;;;;9.13;5.45;;;;;;;;;;5051967;28;20788;-63
2021/06/23 04:52:10;;;;;;;18.17;6.00;;;;;;;;;;5056317;28;20035;-66
2021/06/23 04:54:36;;;;;;;10.57;6.07;;;;;;;;;;5055380;28;20017;-62
2021/06/23 04:57:05;;;;;;;14.75;5.72;;;;;;;;;;5054656;28;20443;-63
2021/06/23 04:59:33;;;;;;;15.85;5.75;;;;;;;;;;5054628;28;20036;-64
2021/06/23 05:02:01;;;;;;;14.57;5.63;;;;;;;;;;5053978;28;20817;-63
2021/06/23 05:04:31;;;;;;;12.73;6.07;;;;;;;;;;5053008;28;20044;-63
2021/06/23 05:07:02;;;;;;;11.05;5.63;;;;;;;;;;5055275;28;20197;-63
2021/06/23 05:09:31;;;;;;;16.35;5.43;;;;;;;;;;5051456;28;20077;-63
2021/06/23 05:12:01;;;;;;;15.07;5.32;;;;;;;;;;5043923;28;20619;-63
2021/06/23 05:14:27;;;;;;;13.38;5.85;;;;;;;;;;5068948;28;20093;-63
2021/06/23 05:16:52;;;;;;;12.80;5.22;;;;;;;;;;5053950;28;20388;-63
2021/06/23 05:19:20;;;;;;;16.40;4.72;;;;;;;;;;5052960;28;20020;-63
2021/06/23 05:21:49;;;;;;;9.05;4.00;;;;;;;;;;5051193;28;20028;-64
2021/06/23 05:24:15;;;;;;;14.52;4.32;;;;;;;;;;5052959;28;20495;-62
2021/06/23 05:26:43;;;;;;;10.23;4.35;;;;;;;;;;5045124;28;20036;-64
2021/06/23 05:29:09;;;;;;;9.77;4.03;;;;;;;;;;5068470;28;21294;-63
2021/06/23 05:31:35;;;;;;;11.63;3.60;;;;;;;;;;5054615;28;20039;-63
2021/06/23 05:34:03;;;;;;;12.00;4.10;;;;;;;;;;5056238;28;20111;-63
2021/06/23 05:36:31;;;;;;;14.38;3.35;;;;;;;;;;5055515;28;20112;-62
2021/06/23 05:39:01;;;;;;;7.32;2.67;;;;;;;;;;5049445;28;20036;-63
2021/06/23 05:41:26;;;;;;;13.68;3.78;;;;;;;;;;5048549;28;20069;-63
2021/06/23 05:43:52;;;;;;;8.82;3.33;;;;;;;;;;5040076;28;20032;-63
2021/06/23 05:46:22;;;;;;;9.25;3.55;;;;;;;;;;5054457;28;20032;-63
2021/06/23 05:48:52;;;;;;;12.15;3.53;;;;;;;;;;5072798;28;20036;-63
2021/06/23 05:51:18;;;;;;;15.70;3.13;;;;;;;;;;5057002;28;20490;-63
2021/06/23 05:53:43;;;;;;;10.50;3.05;;;;;;;;;;5058808;28;20024;-61
2021/06/23 05:56:13;;;;;;;19.48;3.28;;;;;;;;;;5055948;28;20032;-63
2021/06/23 05:58:39;;;;;;;7.13;2.83;;;;;;;;;;5059145;28;20027;-63
2021/06/23 06:01:06;;;;;;;11.80;3.22;;;;;;;;;;5059935;28;20047;-63
2021/06/23 06:03:31;;;;;;;11.43;3.25;;;;;;;;;;5054088;28;20066;-62
2021/06/23 06:05:59;;;;;;;11.50;3.45;;;;;;;;;;5053450;28;20073;-63
2021/06/23 06:08:25;;;;;;;11.45;3.00;;;;;;;;;;5043139;28;20150;-64
2021/06/23 06:10:53;;;;;;;9.00;2.70;;;;;;;;;;5067066;28;20640;-63
2021/06/23 06:13:21;;;;;;;13.13;3.55;;;;;;;;;;5065479;28;20439;-63
2021/06/23 06:15:49;;;;;;;8.02;2.47;;;;;;;;;;5045304;28;20151;-63
2021/06/23 06:18:14;;;;;;;14.23;2.50;;;;;;;;;;5057991;28;20036;-64
2021/06/23 06:20:40;;;;;;;6.30;2.22;;;;;;;;;;5048194;28;20028;-63
2021/06/23 06:23:08;;;;;;;6.22;2.60;;;;;;;;;;5050602;28;20131;-65
2021/06/23 06:25:37;;;;;;;7.68;2.25;;;;;;;;;;5049733;28;20039;-62
2021/06/23 06:28:02;;;;;;;8.85;2.65;;;;;;;;;;5049126;28;20040;-62
2021/06/23 06:30:30;;;;;;;7.00;2.42;;;;;;;;;;5051638;28;20086;-62
2021/06/23 06:33:01;;;;;;;14.60;3.33;;;;;;;;;;5050033;28;20028;-62
2021/06/23 06:35:26;;;;;;;6.43;2.30;;;;;;;;;;5052747;28;20675;-62
2021/06/23 06:37:56;;;;;;;8.43;2.58;;;;;;;;;;5038843;28;20028;-63
2021/06/23 06:40:22;;;;;;;7.20;2.30;;;;;;;;;;5051248;28;20092;-62
2021/06/23 06:42:50;;;;;;;5.65;2.25;;;;;;;;;;5051934;28;20028;-63
2021/06/23 06:45:19;;;;;;;8.43;2.15;;;;;;;;;;5050278;28;20039;-63
2021/06/23 06:47:44;;;;;;;11.88;2.17;;;;;;;;;;5068259;28;20043;-63
2021/06/23 06:50:14;;;;;;;12.32;2.28;;;;;;;;;;5052114;28;20036;-63
2021/06/23 06:52:42;;;;;;;12.15;1.63;;;;;;;;;;5042897;28;20032;-63
2021/06/23 06:55:08;;;;;;;7.70;1.70;;;;;;;;;;5050428;28;20042;-62
2021/06/23 06:57:38;;;;;;;8.18;2.00;;;;;;;;;;5051793;28;20028;-63
2021/06/23 07:00:07;;;;;;;7.10;2.05;;;;;;;;;;5048903;28;20060;-63
2021/06/23 07:02:35;;;;;;;6.57;2.15;;;;;;;;;;5036168;28;20107;-63
2021/06/23 07:05:00;;;;;;;9.63;2.38;;;;;;;;;;5048833;28;20935;-63
2021/06/23 07:07:26;;;;;;;8.48;2.42;;;;;;;;;;5059372;28;20033;-63
2021/06/23 07:09:56;;;;;;;8.00;1.85;;;;;;;;;;5049796;28;20036;-63
2021/06/23 07:12:21;;;;;;;6.20;1.63;;;;;;;;;;5049063;28;20056;-62
2021/06/23 07:14:47;;;;;;;6.47;1.80;;;;;;;;;;5048360;28;20121;-63
2021/06/23 07:17:13;;;;;;;9.80;1.48;;;;;;;;;;5051560;28;20041;-62
2021/06/23 07:19:41;;;;;;;11.63;1.60;;;;;;;;;;5048718;28;20449;-63
2021/06/23 07:22:07;;;;;;;4.93;1.30;;;;;;;;;;5055114;28;20030;-63
2021/06/23 07:24:32;;;;;;;11.38;1.40;;;;;;;;;;5062401;28;20134;-63
2021/06/23 07:27:00;;;;;;;7.80;1.77;;;;;;;;;;5050298;28;20040;-63
2021/06/23 07:29:31;;;;;;;5.75;1.35;;;;;;;;;;5048453;28;20130;-63
2021/06/23 07:32:02;;;;;;;4.88;1.30;;;;;;;;;;5042950;28;20059;-62
2021/06/23 07:37:22;;;;;;;2.55;1.05;;;;;;;;;;5031672;28;20507;-64
2021/06/23 07:39:47;;;;;;;6.68;1.88;;;;;;;;;;5047692;28;20074;-62
2021/06/23 07:42:13;;;;;;;7.13;1.38;;;;;;;;;;5066882;28;20036;-64
2021/06/23 07:44:52;;;;;;;9.20;1.75;;;;;;;;;;5044456;28;20032;-62
2021/06/23 07:47:23;;;;;;;4.50;1.50;;;;;;;;;;5050600;28;20033;-62
2021/06/23 07:49:51;;;;;;;9.48;1.60;;;;;;;;;;5046956;28;20539;-62
2021/06/23 08:11:19;;;;;;;5.47;1.40;;;;;;;;;;5046787;28;20155;-63
2021/06/23 08:13:47;;;;;;;4.18;1.42;;;;;;;;;;5049198;28;20028;-64
2021/06/23 08:16:15;;;;;;;16.40;1.70;;;;;;;;;;5047575;28;20032;-65
2021/06/23 08:18:41;;;;;;;6.00;1.42;;;;;;;;;;5048209;28;20020;-61
2021/06/23 08:21:11;;;;;;;8.68;1.27;;;;;;;;;;5044898;28;20032;-63
2021/06/23 08:23:40;;;;;;;6.35;1.17;;;;;;;;;;5053510;28;20131;-62
2021/06/23 08:26:05;;;;;;;11.07;1.42;;;;;;;;;;5048519;28;20480;-62
2021/06/23 08:28:33;;;;;;;5.60;1.15;;;;;;;;;;5052344;28;20123;-64
2021/06/23 08:31:01;;;;;;;10.05;1.73;;;;;;;;;;5048551;28;21168;-62
2021/06/23 08:33:32;;;;;;;6.30;1.02;;;;;;;;;;5047586;28;20885;-64
2021/06/23 08:36:00;;;;;;;6.60;1.35;;;;;;;;;;5046776;28;20035;-63
2021/06/23 08:38:25;;;;;;;8.00;1.58;;;;;;;;;;5051392;28;20122;-64
2021/06/23 08:41:15;;;;;;;7.53;1.45;;;;;;;;;;5049215;28;20070;-62
2021/06/23 08:43:43;;;;;;;13.57;1.35;;;;;;;;;;5052405;28;20074;-64
2021/06/23 08:46:09;;;;;;;6.68;1.20;;;;;;;;;;5049326;28;20036;-63
2021/06/23 08:48:35;;;;;;;10.68;1.45;;;;;;;;;;5046895;28;20130;-63
2021/06/23 08:51:04;;;;;;;3.70;1.20;;;;;;;;;;5055968;28;20036;-63
2021/06/23 08:53:34;;;;;;;8.68;1.50;;;;;;;;;;5055569;28;20115;-63
2021/06/23 08:55:59;;;;;;;6.78;1.02;;;;;;;;;;5046044;28;20024;-64
2021/06/23 08:58:27;;;;;;;6.00;1.33;;;;;;;;;;5055857;28;20032;-63
2021/06/23 09:00:55;;;;;;;5.88;1.30;;;;;;;;;;5049002;28;20056;-62
2021/06/23 09:03:23;;;;;;;3.15;1.13;;;;;;;;;;5045197;28;20032;-62
2021/06/23 09:05:57;;;;;;;3.55;1.20;;;;;;;;;;5051438;28;20035;-62
2021/06/23 09:08:49;;;;;;;5.95;1.02;;;;;;;;;;5046798;28;20036;-62
2021/06/23 09:11:22;;;;;;;14.30;1.55;;;;;;;;;;5049977;28;20029;-62
2021/06/23 09:13:50;;;;;;;9.52;1.17;;;;;;;;;;5049182;28;20028;-63
2021/06/23 09:16:16;;;;;;;6.65;1.00;;;;;;;;;;5053654;28;20028;-62
2021/06/23 09:18:44;;;;;;;7.18;1.35;;;;;;;;;;5041438;28;20040;-62
2021/06/23 09:21:19;;;;;;;4.68;1.20;;;;;;;;;;5036113;28;20145;-63
2021/06/23 09:23:51;;;;;;;7.10;1.10;;;;;;;;;;5051272;28;20067;-62
2021/06/23 09:26:20;;;;;;;7.30;1.13;;;;;;;;;;5047327;28;20028;-63
2021/06/23 09:29:21;;;;;;;2.63;1.05;;;;;;;;;;5051958;28;20151;-63
2021/06/23 09:31:49;;;;;;;8.68;1.38;;;;;;;;;;5011312;28;20047;-63
2021/06/23 09:34:24;;;;;;;7.15;1.48;;;;;;;;;;5066470;28;21278;-63
2021/06/23 09:36:53;;;;;;;7.28;0.98;;;;;;;;;;5049020;28;20562;-63
2021/06/23 09:39:22;;;;;;;8.25;1.48;;;;;;;;;;5059704;28;20513;-62
2021/06/23 09:41:52;;;;;;;2.90;1.23;;;;;;;;;;5051494;28;20032;-62
2021/06/23 09:44:18;;;;;;;10.30;1.48;;;;;;;;;;5052996;28;20548;-62
2021/06/23 09:46:46;;;;;;;7.07;1.10;;;;;;;;;;5054421;28;20028;-63
2021/06/23 09:49:12;;;;;;;8.35;1.20;;;;;;;;;;5032964;28;20047;-63
2021/06/23 09:51:53;;;;;;;6.15;1.48;;;;;;;;;;5051725;28;20135;-63
2021/06/23 09:54:26;;;;;;;8.98;1.15;;;;;;;;;;5055141;28;20113;-63
2021/06/23 09:57:11;;;;;;;6.90;1.20;;;;;;;;;;5058161;28;20035;-63
2021/06/23 09:59:41;;;;;;;9.57;1.10;;;;;;;;;;5054441;28;20036;-63
2021/06/23 10:02:23;;;;;;;7.47;1.00;;;;;;;;;;5058782;28;20123;-63
2021/06/23 10:04:56;;;;;;;10.32;1.35;;;;;;;;;;5057182;28;20040;-63
2021/06/23 10:07:43;;;;;;;3.58;0.80;;;;;;;;;;5058922;28;20105;-63
2021/06/23 10:10:08;;;;;;;;;;;;;;;;;;5056738;28;20083;-63
2021/06/23 10:12:37;;;;;;;2.17;0.90;;;;;;;;;;5057248;28;20320;-62
2021/06/23 10:15:03;;;;;;;9.73;1.20;;;;;;;;;;5051728;28;20036;-63
2021/06/23 10:17:31;;;;;;;3.28;1.05;;;;;;;;;;5057322;28;20021;-63
2021/06/23 10:19:59;;;;;;;7.35;0.90;;;;;;;;;;5056919;28;20024;-62
2021/06/23 10:22:28;;;;;;;2.75;0.95;;;;;;;;;;5061090;28;20032;-63
2021/06/23 10:24:55;;;;;;;8.65;1.70;;;;;;;;;;5056647;28;20070;-64
2021/06/23 10:27:25;;;;;;;7.78;1.10;;;;;;;;;;5055430;28;20028;-63
2021/06/23 10:29:57;;;;;;;7.30;1.40;;;;;;;;;;5046530;28;20475;-63
2021/06/23 10:32:25;;;;;;;3.67;0.95;;;;;;;;;;5056894;28;20873;-62
2021/06/23 10:34:51;;;;;;;4.00;1.42;;;;;;;;;;5055964;28;20023;-64
2021/06/23 10:37:19;;;;;;;7.20;1.25;;;;;;;;;;5040028;28;20491;-63
2021/06/23 10:39:45;;;;;;;4.15;0.98;;;;;;;;;;5057360;28;20036;-62
2021/06/23 10:42:11;;;;;;;5.43;0.80;;;;;;;;;;5056668;28;20048;-64
2021/06/23 10:44:42;;;;;;;11.35;1.30;;;;;;;;;;5058465;28;20180;-63
2021/06/23 10:47:11;;;;;;;8.60;1.00;;;;;;;;;;5055919;28;20028;-64
2021/06/23 10:49:41;;;;;;;7.88;1.38;;;;;;;;;;5060363;28;20132;-63
2021/06/23 10:52:20;;;;;;;9.32;1.02;;;;;;;;;;5069359;27;20055;-65
2021/06/23 10:55:00;;;;;;;11.50;1.73;;;;;;;;;;5060280;28;20016;-63
2021/06/23 10:57:26;;;;;;;7.00;1.42;;;;;;;;;;5056570;28;20032;-63
2021/06/23 10:59:58;;;;;;;7.82;1.42;;;;;;;;;;5055830;28;20032;-63
2021/06/23 11:02:34;;;;;;;3.35;0.90;;;;;;;;;;5056220;28;20052;-63
2021/06/23 11:05:06;;;;;;;4.45;0.80;;;;;;;;;;5072111;28;21061;-63
2021/06/23 11:07:38;;;;;;;2.63;0.60;;;;;;;;;;5057650;28;20059;-63
2021/06/23 11:10:16;;;;;;;1.58;0.90;;;;;;;;;;5052047;28;20048;-62
2021/06/23 11:12:53;;;;;;;5.18;1.35;;;;;;;;;;5071306;28;20024;-63
2021/06/23 11:15:34;;;;;;;6.35;1.38;;;;;;;;;;5054023;28;20072;-63
2021/06/23 11:18:09;;;;;;;6.55;0.98;;;;;;;;;;5055694;28;20039;-63
2021/06/23 11:20:38;;;;;;;5.05;1.13;;;;;;;;;;5055360;28;20123;-63
2021/06/23 11:23:06;;;;;;;6.38;0.85;;;;;;;;;;5071559;27;20059;-63
2021/06/23 11:25:36;;;;;;;2.33;1.42;;;;;;;;;;5053499;28;20695;-64
2021/06/23 11:28:07;;;;;;;5.43;1.00;;;;;;;;;;5073660;28;20036;-63
2021/06/23 11:30:53;;;;;;;7.28;1.20;;;;;;;;;;5039297;28;20491;-64
2021/06/23 11:33:28;;;;;;;5.60;1.08;;;;;;;;;;5048538;28;20155;-65
2021/06/23 11:35:58;;;;;;;3.28;0.80;;;;;;;;;;5053426;28;20387;-64
2021/06/23 11:38:24;;;;;;;5.32;0.90;;;;;;;;;;5056138;28;20013;-64
2021/06/23 11:40:54;;;;;;;3.90;0.98;;;;;;;;;;5055074;28;20654;-64
2021/06/23 11:43:20;;;;;;;5.00;1.92;;;;;;;;;;5056042;28;20063;-64
2021/06/23 11:45:48;;;;;;;7.57;1.40;;;;;;;;;;5040831;28;20141;-63
2021/06/23 11:48:14;;;;;;;7.38;0.90;;;;;;;;;;5054874;28;20098;-64
2021/06/23 11:50:43;;;;;;;6.55;1.20;;;;;;;;;;5054524;28;20192;-64
2021/06/23 11:53:11;;;;;;;5.72;1.50;;;;;;;;;;5052396;28;20035;-64
2021/06/23 11:55:43;;;;;;;2.75;0.93;;;;;;;;;;5069794;28;20099;-64
2021/06/23 11:58:11;;;;;;;7.43;1.00;;;;;;;;;;5054726;28;20032;-63
2021/06/23 12:00:37;;;;;;;4.80;1.45;;;;;;;;;;5058002;28;20711;-64
2021/06/23 12:03:03;;;;;;;5.00;1.20;;;;;;;;;;5069462;28;20097;-64
2021/06/23 12:08:36;;;;;;;8.50;1.00;;;;;;;;;;5054422;28;20043;-64
2021/06/23 12:11:05;;;;;;;4.15;0.80;;;;;;;;;;5054323;28;20054;-64
2021/06/23 12:13:31;;;;;;;2.47;0.55;;;;;;;;;;5041048;28;20033;-64
2021/06/23 12:15:57;;;;;;;7.18;1.30;;;;;;;;;;5051883;28;20056;-64
2021/06/23 12:18:24;;;;;;;7.13;0.98;;;;;;;;;;5054223;28;20036;-63
2021/06/23 12:20:52;;;;;;;7.95;1.08;;;;;;;;;;5053140;28;20096;-64
2021/06/23 12:23:19;;;;;;;2.42;1.05;;;;;;;;;;5047870;28;20064;-64
2021/06/23 12:25:48;;;;;;;5.55;1.02;;;;;;;;;;5051076;28;20039;-64
2021/06/23 12:28:18;;;;;;;4.63;1.20;;;;;;;;;;5055301;28;20028;-64
2021/06/23 12:30:49;;;;;;;4.72;1.10;;;;;;;;;;5068952;28;20879;-63
2021/06/23 12:33:15;;;;;;;3.30;1.00;;;;;;;;;;5060426;28;20046;-64
2021/06/23 12:35:42;;;;;;;4.55;1.00;;;;;;;;;;5054302;28;20016;-64
2021/06/23 12:38:11;;;;;;;2.58;1.10;;;;;;;;;;5071627;28;20025;-63
2021/06/23 12:40:39;;;;;;;3.88;1.00;;;;;;;;;;5051790;28;20438;-64
2021/06/23 12:43:13;;;;;;;6.57;1.15;;;;;;;;;;5054938;28;20028;-64
2021/06/23 12:45:45;;;;;;;6.95;0.95;;;;;;;;;;5055640;28;20039;-65
2021/06/23 12:48:11;;;;;;;3.38;0.88;;;;;;;;;;5044484;28;20060;-64
2021/06/23 12:50:39;;;;;;;2.10;0.95;;;;;;;;;;5069066;28;20476;-65
2021/06/23 12:53:05;;;;;;;9.38;0.90;;;;;;;;;;5040025;28;20061;-64
2021/06/23 12:55:40;;;;;;;3.45;0.88;;;;;;;;;;5061575;28;20039;-64
2021/06/23 12:58:10;;;;;;;3.58;0.80;;;;;;;;;;5044212;28;20035;-64
2021/06/23 13:00:38;;;;;;;3.55;1.30;;;;;;;;;;5052867;28;20028;-65
2021/06/23 13:03:06;;;;;;;5.65;1.00;;;;;;;;;;5038369;28;20036;-64
2021/06/23 13:05:33;;;;;;;5.43;0.80;;;;;;;;;;5051418;28;20025;-64
2021/06/23 13:08:01;;;;;;;4.80;0.95;;;;;;;;;;5055841;28;20024;-64
2021/06/23 13:10:29;;;;;;;3.92;1.00;;;;;;;;;;5055276;28;20224;-63
2021/06/23 13:12:55;;;;;;;5.78;0.75;;;;;;;;;;5054915;28;20036;-63
2021/06/23 13:15:27;;;;;;;5.38;0.68;;;;;;;;;;5068889;28;20051;-63
2021/06/23 13:17:55;;;;;;;7.28;1.00;;;;;;;;;;5052410;28;20070;-64
2021/06/23 13:20:26;;;;;;;2.50;0.77;;;;;;;;;;5053553;28;20032;-64
2021/06/23 13:22:53;;;;;;;8.10;1.10;;;;;;;;;;5038732;28;20059;-65
2021/06/23 13:25:19;;;;;;;5.65;1.38;;;;;;;;;;5060494;28;20040;-64
2021/06/23 13:27:47;;;;;;;3.20;0.80;;;;;;;;;;5052740;28;20698;-64
2021/06/23 13:30:13;;;;;;;4.97;0.93;;;;;;;;;;5053473;28;20028;-65
2021/06/23 13:32:38;;;;;;;4.40;0.73;;;;;;;;;;5052496;28;20036;-65
2021/06/23 13:35:04;;;;;;;2.25;1.00;;;;;;;;;;5052111;28;20047;-64
2021/06/23 13:37:32;;;;;;;2.65;0.88;;;;;;;;;;5067354;28;20124;-63
2021/06/23 13:39:57;;;;;;;7.68;1.02;;;;;;;;;;5070707;28;20086;-64
2021/06/23 13:42:29;;;;;;;4.03;0.95;;;;;;;;;;5053551;28;20035;-66
2021/06/23 13:44:58;;;;;;;5.18;1.02;;;;;;;;;;5051569;28;20017;-65
2021/06/23 13:47:24;;;;;;;7.05;0.93;;;;;;;;;;5054819;28;20609;-62
2021/06/23 13:49:54;;;;;;;8.02;0.90;;;;;;;;;;5049777;28;20195;-63
2021/06/23 13:52:20;;;;;;;2.88;0.65;;;;;;;;;;5056230;28;20376;-62
2021/06/23 13:54:48;;;;;;;3.28;0.70;;;;;;;;;;5040905;28;20048;-62
2021/06/23 13:57:16;;;;;;;2.53;0.80;;;;;;;;;;5053415;28;20033;-63
2021/06/23 13:59:46;;;;;;;10.00;1.08;;;;;;;;;;5055423;28;20039;-64
2021/06/23 14:02:11;;;;;;;4.47;0.75;;;;;;;;;;5051775;28;20034;-63
2021/06/23 14:04:37;;;;;;;6.80;0.80;;;;;;;;;;5035937;28;20040;-63
2021/06/23 14:07:30;;;;;;;7.20;1.10;;;;;;;;;;5180845;22;20071;-88
2021/06/23 14:10:07;;;;;;;6.72;0.68;;;;;;;;;;5026685;28;20038;-90
2021/06/23 14:12:39;;;;;;;4.43;0.98;;;;;;;;;;5014854;28;20033;-87
2021/06/23 14:15:05;;;;;;;7.97;1.00;;;;;;;;;;4991871;28;20029;-91
2021/06/23 14:17:31;;;;;;;6.00;1.50;;;;;;;;;;5018048;28;20018;-91
2021/06/23 14:19:59;;;;;;;6.43;1.15;;;;;;;;;;5016996;28;20471;-87
2021/06/23 14:22:29;;;;;;;7.43;1.08;;;;;;;;;;5030364;28;20025;-88
2021/06/23 14:24:54;;;;;;;4.00;0.65;;;;;;;;;;5018567;28;20454;-89
2021/06/23 14:27:20;;;;;;;3.72;0.60;;;;;;;;;;4997697;28;20025;-88
2021/06/23 14:29:48;;;;;;;2.80;0.80;;;;;;;;;;4992769;28;20034;-89
2021/06/23 14:32:17;;;;;;;4.55;0.93;;;;;;;;;;4964934;28;20047;-93
2021/06/23 14:34:53;;;;;;;6.10;1.50;;;;;;;;;;4965027;28;22027;-90
2021/06/23 14:37:22;;;;;;;7.75;1.10;;;;;;;;;;4977137;28;20026;-90
2021/06/23 14:39:57;;;;;;;4.65;0.80;;;;;;;;;;4988976;28;20045;-88
2021/06/23 14:42:25;;;;;;;2.33;0.95;;;;;;;;;;4958953;28;20376;-87
2021/06/23 14:44:56;;;;;;;4.60;0.77;;;;;;;;;;4964027;28;20038;-90
2021/06/23 14:47:23;;;;;;;7.38;1.35;;;;;;;;;;4957218;28;20045;-89
2021/06/23 14:49:56;;;;;;;8.13;0.80;;;;;;;;;;4965196;28;20031;-91
2021/06/23 14:52:28;;;;;;;8.10;1.08;;;;;;;;;;4981548;28;20027;-88
2021/06/23 14:55:04;;;;;;;4.00;1.10;;;;;;;;;;4951062;28;20030;-90
2021/06/23 14:57:39;;;;;;;;;;;;;;;;;;4976062;28;20023;-91
2021/06/23 15:00:12;;;;;;;3.63;0.98;;;;;;;;;;4998091;28;19913;-89
2021/06/23 15:02:41;;;;;;;7.32;1.20;;;;;;;;;;5008954;28;20053;-88
2021/06/23 15:05:37;;;;;;;4.65;1.40;;;;;;;;;;5034163;28;20048;-89
2021/06/23 15:08:23;;;;;;;2.08;0.98;;;;;;;;;;5015428;28;20140;-90
2021/06/23 15:10:50;;;;;;;6.00;1.02;;;;;;;;;;5007962;28;20040;-90
2021/06/23 15:13:39;;;;;;;4.82;0.95;;;;;;;;;;5017535;28;20045;-89
2021/06/23 15:16:05;;;;;;;5.63;1.10;;;;;;;;;;5012215;28;20041;-90
2021/06/23 15:18:32;;;;;;;4.18;1.48;;;;;;;;;;5026566;28;20041;-87